OOCL California — VRWC8 — position and weather

sailwx.info

Track history (hours):
 
Tides and Currents Weather Stations Pressure Air Temp Water Temp Dewpoint Dewpoint Depression Visibility Wind Speed Wind Dir Waves Ship Positions

OOCL California

Last reported at 2017-Jan-17 15:33 UTC. Time now 2017-Jan-17 19:13 UTC.
Position N 01°56' E 102°18'.

Length 276 m; beam 40 m; draft 14 m.

Type: Ship. MMSI: 477704000.

Date/timePositionNaut miles runAvg speedWind from/ knotsBaromVisibWave heightAir tempDewpointWater temp
2017-Jan-17 15:33N 01°56' E 102°18'1413.9
2017-Jan-17 14:33N 01°50' E 102°30'1514.7
2017-Jan-17 13:33N 01°43' E 102°43'3816.1
2017-Jan-17 11:12N 01°22' E 103°15'2814.9
2017-Jan-17 09:21N 01°13' E 103°41'6 8.1
2017-Jan-17 08:33N 01°16' E 103°47'0 0.1
2017-Jan-17 07:32N 01°16' E 103°47'0 0.0
2017-Jan-17 06:29N 01°16' E 103°47'0 0.0
2017-Jan-17 05:32N 01°16' E 103°47'0 0.1
2017-Jan-17 04:32N 01°16' E 103°47'0 0.1
2017-Jan-17 03:29N 01°16' E 103°47'0 0.0
2017-Jan-17 02:29N 01°16' E 103°47'0 0.1
2017-Jan-17 01:32N 01°16' E 103°47'0 0.1
2017-Jan-17 00:32N 01°16' E 103°47'0 0.0
2017-Jan-16 23:32N 01°16' E 103°47'0 0.0
2017-Jan-16 22:29N 01°16' E 103°47'0 0.2
2017-Jan-16 21:29N 01°16' E 103°47'1 0.6
2017-Jan-16 19:26N 01°17' E 103°46'0 0.0
2017-Jan-16 18:20N 01°17' E 103°46'0 0.0
2017-Jan-16 17:29N 01°17' E 103°46'0 0.0
2017-Jan-16 16:32N 01°17' E 103°46'0 0.0
2017-Jan-16 15:32N 01°17' E 103°46'0 0.0
2017-Jan-16 14:32N 01°17' E 103°46'0 0.0
2017-Jan-16 12:32N 01°17' E 103°46'0 0.0
2017-Jan-16 11:33N 01°17' E 103°46'0 0.0
2017-Jan-16 10:32N 01°17' E 103°46'0 0.0
2017-Jan-16 09:33N 01°17' E 103°46'0 0.0
2017-Jan-16 08:32N 01°17' E 103°46'0 0.0
2017-Jan-16 07:33N 01°17' E 103°46'0 0.0
2017-Jan-16 06:32N 01°17' E 103°46'0 0.0
2017-Jan-16 05:31N 01°17' E 103°46'0 0.0
2017-Jan-16 04:33N 01°17' E 103°46'1 1.1
2017-Jan-16 03:33N 01°17' E 103°45'5 5.2
2017-Jan-16 02:32N 01°13' E 103°48'7 6.7
2017-Jan-16 01:33N 01°14' E 103°55'1110.8
2017-Jan-16 00:33N 01°16' E 104°05'  
2017-Jan-09 02:33N 31°08' E 122°25'5 4.4
2017-Jan-09 01:29N 31°13' E 122°27'0 0.0
2017-Jan-09 00:17N 31°13' E 122°27'0 0.0
2017-Jan-08 23:32N 31°13' E 122°27'0 0.0
2017-Jan-08 22:32N 31°13' E 122°27'0 0.1
2017-Jan-08 21:29N 31°13' E 122°26'0 0.0
2017-Jan-08 20:32N 31°13' E 122°26'0 0.0
2017-Jan-08 19:26N 31°13' E 122°26'0 0.0
2017-Jan-08 18:32N 31°13' E 122°26'0 0.1
2017-Jan-08 17:32N 31°13' E 122°27'0 0.0
2017-Jan-08 16:32N 31°13' E 122°27'0 0.0
2017-Jan-08 15:29N 31°13' E 122°27'0 0.0
2017-Jan-08 14:26N 31°13' E 122°27'0 0.1
2017-Jan-08 13:26N 31°13' E 122°27'0 0.0
2017-Jan-08 12:26N 31°13' E 122°27'0 0.0
2017-Jan-08 11:26N 31°13' E 122°27'0 0.1
2017-Jan-08 10:23N 31°13' E 122°27'0 0.0
2017-Jan-08 09:29N 31°13' E 122°27'0 0.0
2017-Jan-08 08:11N 31°13' E 122°26'0 0.0
2017-Jan-08 07:23N 31°13' E 122°26'0 0.0
2017-Jan-08 06:29N 31°13' E 122°26'0 0.1
2017-Jan-08 05:32N 31°13' E 122°27'0 0.0
2017-Jan-08 04:32N 31°13' E 122°27'0 0.0
2017-Jan-08 03:29N 31°13' E 122°27'0 0.1
2017-Jan-08 02:32N 31°13' E 122°27'0 0.0
2017-Jan-08 01:32N 31°13' E 122°27'0 0.0
2017-Jan-08 00:29N 31°13' E 122°27'0 0.0
2017-Jan-07 23:29N 31°13' E 122°27'0 0.1
2017-Jan-07 22:29N 31°13' E 122°27'0 0.1
2017-Jan-07 21:32N 31°13' E 122°26'0 0.0
2017-Jan-07 20:23N 31°13' E 122°26'0 0.0
2017-Jan-07 19:32N 31°13' E 122°26'0 0.1
2017-Jan-07 18:32N 31°13' E 122°27'0 0.0
2017-Jan-07 17:32N 31°13' E 122°27'1 0.6
2017-Jan-07 16:33N 31°12' E 122°26'7 7.4
2017-Jan-07 15:34N 31°06' E 122°22'  
Track history (hours):
 
Tides and Currents Weather Stations Pressure Air Temp Water Temp Dewpoint Dewpoint Depression Visibility Wind Speed Wind Dir Waves Ship Positions

OOCL California

Last reported at 2017-Jan-17 15:33 UTC. Time now 2017-Jan-17 19:13 UTC.
Position N 01°56' E 102°18'.

Length 276 m; beam 40 m; draft 14 m.

Type: Ship. MMSI: 477704000.

Date/timePositionNaut miles runAvg speedWind from/ knotsBaromVisibWave heightAir tempDewpointWater temp
2017-Jan-17 15:33N 01°56' E 102°18'1413.9
2017-Jan-17 14:33N 01°50' E 102°30'1514.7
2017-Jan-17 13:33N 01°43' E 102°43'3816.1
2017-Jan-17 11:12N 01°22' E 103°15'2814.9
2017-Jan-17 09:21N 01°13' E 103°41'6 8.1
2017-Jan-17 08:33N 01°16' E 103°47'0 0.1
2017-Jan-17 07:32N 01°16' E 103°47'0 0.0
2017-Jan-17 06:29N 01°16' E 103°47'0 0.0
2017-Jan-17 05:32N 01°16' E 103°47'0 0.1
2017-Jan-17 04:32N 01°16' E 103°47'0 0.1
2017-Jan-17 03:29N 01°16' E 103°47'0 0.0
2017-Jan-17 02:29N 01°16' E 103°47'0 0.1
2017-Jan-17 01:32N 01°16' E 103°47'0 0.1
2017-Jan-17 00:32N 01°16' E 103°47'0 0.0
2017-Jan-16 23:32N 01°16' E 103°47'0 0.0
2017-Jan-16 22:29N 01°16' E 103°47'0 0.2
2017-Jan-16 21:29N 01°16' E 103°47'1 0.6
2017-Jan-16 19:26N 01°17' E 103°46'0 0.0
2017-Jan-16 18:20N 01°17' E 103°46'0 0.0
2017-Jan-16 17:29N 01°17' E 103°46'0 0.0
2017-Jan-16 16:32N 01°17' E 103°46'0 0.0
2017-Jan-16 15:32N 01°17' E 103°46'0 0.0
2017-Jan-16 14:32N 01°17' E 103°46'0 0.0
2017-Jan-16 12:32N 01°17' E 103°46'0 0.0
2017-Jan-16 11:33N 01°17' E 103°46'0 0.0
2017-Jan-16 10:32N 01°17' E 103°46'0 0.0
2017-Jan-16 09:33N 01°17' E 103°46'0 0.0
2017-Jan-16 08:32N 01°17' E 103°46'0 0.0
2017-Jan-16 07:33N 01°17' E 103°46'0 0.0
2017-Jan-16 06:32N 01°17' E 103°46'0 0.0
2017-Jan-16 05:31N 01°17' E 103°46'0 0.0
2017-Jan-16 04:33N 01°17' E 103°46'1 1.1
2017-Jan-16 03:33N 01°17' E 103°45'5 5.2
2017-Jan-16 02:32N 01°13' E 103°48'7 6.7
2017-Jan-16 01:33N 01°14' E 103°55'1110.8
2017-Jan-16 00:33N 01°16' E 104°05'  
2017-Jan-09 02:33N 31°08' E 122°25'5 4.4
2017-Jan-09 01:29N 31°13' E 122°27'0 0.0
2017-Jan-09 00:17N 31°13' E 122°27'0 0.0
2017-Jan-08 23:32N 31°13' E 122°27'0 0.0
2017-Jan-08 22:32N 31°13' E 122°27'0 0.1
2017-Jan-08 21:29N 31°13' E 122°26'0 0.0
2017-Jan-08 20:32N 31°13' E 122°26'0 0.0
2017-Jan-08 19:26N 31°13' E 122°26'0 0.0
2017-Jan-08 18:32N 31°13' E 122°26'0 0.1
2017-Jan-08 17:32N 31°13' E 122°27'0 0.0
2017-Jan-08 16:32N 31°13' E 122°27'0 0.0
2017-Jan-08 15:29N 31°13' E 122°27'0 0.0
2017-Jan-08 14:26N 31°13' E 122°27'0 0.1
2017-Jan-08 13:26N 31°13' E 122°27'0 0.0
2017-Jan-08 12:26N 31°13' E 122°27'0 0.0
2017-Jan-08 11:26N 31°13' E 122°27'0 0.1
2017-Jan-08 10:23N 31°13' E 122°27'0 0.0
2017-Jan-08 09:29N 31°13' E 122°27'0 0.0
2017-Jan-08 08:11N 31°13' E 122°26'0 0.0
2017-Jan-08 07:23N 31°13' E 122°26'0 0.0
2017-Jan-08 06:29N 31°13' E 122°26'0 0.1
2017-Jan-08 05:32N 31°13' E 122°27'0 0.0
2017-Jan-08 04:32N 31°13' E 122°27'0 0.0
2017-Jan-08 03:29N 31°13' E 122°27'0 0.1
2017-Jan-08 02:32N 31°13' E 122°27'0 0.0
2017-Jan-08 01:32N 31°13' E 122°27'0 0.0
2017-Jan-08 00:29N 31°13' E 122°27'0 0.0
2017-Jan-07 23:29N 31°13' E 122°27'0 0.1
2017-Jan-07 22:29N 31°13' E 122°27'0 0.1
2017-Jan-07 21:32N 31°13' E 122°26'0 0.0
2017-Jan-07 20:23N 31°13' E 122°26'0 0.0
2017-Jan-07 19:32N 31°13' E 122°26'0 0.1
2017-Jan-07 18:32N 31°13' E 122°27'0 0.0
2017-Jan-07 17:32N 31°13' E 122°27'1 0.6
2017-Jan-07 16:33N 31°12' E 122°26'7 7.4
2017-Jan-07 15:34N 31°06' E 122°22'  

Dump ship's entire track history